Graceland, Illinois
Current Conditions -  °F | °C
As of 4:53 PM on Saturday 20 Dec 2014 (Local Time) from KMDW Reporting Station
Overcast Overcast  
Wind Chill: 28°   Ceiling: 5000
Heat Index: 34°   Visibility: 10mi
Dew Point: 25°   Wind: 7mph
Humidity: 70%   Direction: 200°SSW
Pressure: 30.26"   Gusts: NA
Location:  41.9396°N, 87.6568°W
Report Text: KMDW 202253Z 20006KT 10SM BKN050 OVC070 01/M04 A3026 RMK AO2 SLP259 T00111039
Loading
Personal Weather Stations






























Interactive Weather Map New forecast layout! Learn more

10-Day Weather Forecast

Advertisements
Track Severe Weather on mobile